sensor_id;sensor_type;location;lat;lon;timestamp;temperature;humidity
71563;DHT22;59391;52.504;13.438;2023-04-23T00:00:04;18.20;37.10
71563;DHT22;59391;52.504;13.438;2023-04-23T00:02:32;18.10;37.30
71563;DHT22;59391;52.504;13.438;2023-04-23T00:05:02;18.00;37.40
71563;DHT22;59391;52.504;13.438;2023-04-23T00:07:32;18.00;37.40
71563;DHT22;59391;52.504;13.438;2023-04-23T00:10:00;18.00;37.50
71563;DHT22;59391;52.504;13.438;2023-04-23T00:12:28;18.00;37.60
71563;DHT22;59391;52.504;13.438;2023-04-23T00:14:54;18.00;37.60
71563;DHT22;59391;52.504;13.438;2023-04-23T00:17:20;17.90;37.70
71563;DHT22;59391;52.504;13.438;2023-04-23T00:19:45;17.90;37.70
71563;DHT22;59391;52.504;13.438;2023-04-23T00:22:12;17.90;37.80
71563;DHT22;59391;52.504;13.438;2023-04-23T00:24:38;17.90;37.80
71563;DHT22;59391;52.504;13.438;2023-04-23T00:27:04;17.90;37.90
71563;DHT22;59391;52.504;13.438;2023-04-23T00:29:31;17.90;38.00
71563;DHT22;59391;52.504;13.438;2023-04-23T00:31:57;17.90;38.10
71563;DHT22;59391;52.504;13.438;2023-04-23T00:34:22;17.90;38.10
71563;DHT22;59391;52.504;13.438;2023-04-23T00:36:48;17.90;38.20
71563;DHT22;59391;52.504;13.438;2023-04-23T00:39:14;17.90;38.20
71563;DHT22;59391;52.504;13.438;2023-04-23T00:41:40;17.80;38.40
71563;DHT22;59391;52.504;13.438;2023-04-23T00:44:06;17.80;38.50
71563;DHT22;59391;52.504;13.438;2023-04-23T00:46:36;17.80;38.60
71563;DHT22;59391;52.504;13.438;2023-04-23T00:49:01;17.80;38.70
71563;DHT22;59391;52.504;13.438;2023-04-23T00:51:28;17.70;38.70
71563;DHT22;59391;52.504;13.438;2023-04-23T00:53:55;17.70;38.90
71563;DHT22;59391;52.504;13.438;2023-04-23T00:56:22;17.70;38.90
71563;DHT22;59391;52.504;13.438;2023-04-23T00:58:49;17.70;38.90
71563;DHT22;59391;52.504;13.438;2023-04-23T01:01:16;17.70;39.00
71563;DHT22;59391;52.504;13.438;2023-04-23T01:03:45;17.70;39.10
71563;DHT22;59391;52.504;13.438;2023-04-23T01:06:15;17.70;39.10
71563;DHT22;59391;52.504;13.438;2023-04-23T01:08:44;17.70;39.20
71563;DHT22;59391;52.504;13.438;2023-04-23T01:11:15;17.70;39.20
71563;DHT22;59391;52.504;13.438;2023-04-23T01:13:42;17.70;39.30
71563;DHT22;59391;52.504;13.438;2023-04-23T01:16:08;17.70;39.40
71563;DHT22;59391;52.504;13.438;2023-04-23T01:18:35;17.70;39.50
71563;DHT22;59391;52.504;13.438;2023-04-23T01:21:01;17.70;39.50
71563;DHT22;59391;52.504;13.438;2023-04-23T01:23:27;17.70;39.50
71563;DHT22;59391;52.504;13.438;2023-04-23T01:25:53;17.70;39.50
71563;DHT22;59391;52.504;13.438;2023-04-23T01:28:20;17.70;39.60
71563;DHT22;59391;52.504;13.438;2023-04-23T01:30:47;17.70;39.50
71563;DHT22;59391;52.504;13.438;2023-04-23T01:33:13;17.70;39.60
71563;DHT22;59391;52.504;13.438;2023-04-23T01:35:40;17.70;39.70
71563;DHT22;59391;52.504;13.438;2023-04-23T01:38:10;17.70;39.70
71563;DHT22;59391;52.504;13.438;2023-04-23T01:40:38;17.70;39.80
71563;DHT22;59391;52.504;13.438;2023-04-23T01:43:07;17.70;39.80
71563;DHT22;59391;52.504;13.438;2023-04-23T01:45:33;17.70;39.90
71563;DHT22;59391;52.504;13.438;2023-04-23T01:47:59;17.70;40.00
71563;DHT22;59391;52.504;13.438;2023-04-23T01:50:27;17.80;40.00
71563;DHT22;59391;52.504;13.438;2023-04-23T01:52:54;17.70;40.00
71563;DHT22;59391;52.504;13.438;2023-04-23T01:55:20;17.70;40.00
71563;DHT22;59391;52.504;13.438;2023-04-23T01:57:46;17.80;40.10
71563;DHT22;59391;52.504;13.438;2023-04-23T02:00:13;17.70;40.20
71563;DHT22;59391;52.504;13.438;2023-04-23T02:02:41;17.80;40.40
71563;DHT22;59391;52.504;13.438;2023-04-23T02:05:12;17.80;40.40
71563;DHT22;59391;52.504;13.438;2023-04-23T02:07:41;17.80;40.90
71563;DHT22;59391;52.504;13.438;2023-04-23T02:10:08;17.80;40.80
71563;DHT22;59391;52.504;13.438;2023-04-23T02:12:35;17.80;41.30
71563;DHT22;59391;52.504;13.438;2023-04-23T02:15:02;17.80;41.50
71563;DHT22;59391;52.504;13.438;2023-04-23T02:17:30;17.80;42.90
71563;DHT22;59391;52.504;13.438;2023-04-23T02:19:56;17.70;46.90
71563;DHT22;59391;52.504;13.438;2023-04-23T02:22:22;17.70;48.60
71563;DHT22;59391;52.504;13.438;2023-04-23T02:24:50;17.50;50.20
71563;DHT22;59391;52.504;13.438;2023-04-23T02:27:16;17.30;51.90
71563;DHT22;59391;52.504;13.438;2023-04-23T02:29:43;17.00;52.30
71563;DHT22;59391;52.504;13.438;2023-04-23T02:32:09;16.80;53.40
71563;DHT22;59391;52.504;13.438;2023-04-23T02:34:36;16.50;55.00
71563;DHT22;59391;52.504;13.438;2023-04-23T02:37:02;16.30;56.20
71563;DHT22;59391;52.504;13.438;2023-04-23T02:39:29;16.10;56.80
71563;DHT22;59391;52.504;13.438;2023-04-23T02:41:56;15.90;57.90
71563;DHT22;59391;52.504;13.438;2023-04-23T02:44:23;15.80;58.00
71563;DHT22;59391;52.504;13.438;2023-04-23T02:46:49;15.70;59.00
71563;DHT22;59391;52.504;13.438;2023-04-23T02:49:16;15.60;58.80
71563;DHT22;59391;52.504;13.438;2023-04-23T02:51:41;15.50;60.00
71563;DHT22;59391;52.504;13.438;2023-04-23T02:54:07;15.50;59.40
71563;DHT22;59391;52.504;13.438;2023-04-23T02:56:33;15.40;59.60
71563;DHT22;59391;52.504;13.438;2023-04-23T02:58:58;15.40;59.90
71563;DHT22;59391;52.504;13.438;2023-04-23T03:01:25;15.40;60.70
71563;DHT22;59391;52.504;13.438;2023-04-23T03:03:51;15.40;60.30
71563;DHT22;59391;52.504;13.438;2023-04-23T03:06:17;15.30;60.80
71563;DHT22;59391;52.504;13.438;2023-04-23T03:08:43;15.30;62.30
71563;DHT22;59391;52.504;13.438;2023-04-23T03:11:08;15.30;61.60
71563;DHT22;59391;52.504;13.438;2023-04-23T03:13:34;15.30;61.50
71563;DHT22;59391;52.504;13.438;2023-04-23T03:16:00;15.30;62.60
71563;DHT22;59391;52.504;13.438;2023-04-23T03:18:25;15.30;62.90
71563;DHT22;59391;52.504;13.438;2023-04-23T03:20:51;15.30;63.90
71563;DHT22;59391;52.504;13.438;2023-04-23T03:23:17;15.30;64.20
71563;DHT22;59391;52.504;13.438;2023-04-23T03:25:42;15.30;64.80
71563;DHT22;59391;52.504;13.438;2023-04-23T03:28:08;15.30;65.30
71563;DHT22;59391;52.504;13.438;2023-04-23T03:30:33;15.30;65.80
71563;DHT22;59391;52.504;13.438;2023-04-23T03:32:59;15.30;66.10
71563;DHT22;59391;52.504;13.438;2023-04-23T03:35:27;15.30;66.30
71563;DHT22;59391;52.504;13.438;2023-04-23T03:37:52;15.40;66.20
71563;DHT22;59391;52.504;13.438;2023-04-23T03:40:18;15.40;66.20
71563;DHT22;59391;52.504;13.438;2023-04-23T03:42:45;15.40;66.00
71563;DHT22;59391;52.504;13.438;2023-04-23T03:45:11;15.40;65.90
71563;DHT22;59391;52.504;13.438;2023-04-23T03:47:38;15.40;66.00
71563;DHT22;59391;52.504;13.438;2023-04-23T03:50:07;15.40;66.10
71563;DHT22;59391;52.504;13.438;2023-04-23T03:52:33;15.40;65.70
71563;DHT22;59391;52.504;13.438;2023-04-23T03:54:59;15.40;65.80
71563;DHT22;59391;52.504;13.438;2023-04-23T03:57:25;15.40;65.90
71563;DHT22;59391;52.504;13.438;2023-04-23T03:59:51;15.50;66.10
71563;DHT22;59391;52.504;13.438;2023-04-23T04:02:17;15.50;66.00
71563;DHT22;59391;52.504;13.438;2023-04-23T04:04:43;15.50;65.90
71563;DHT22;59391;52.504;13.438;2023-04-23T04:07:10;15.50;66.10
71563;DHT22;59391;52.504;13.438;2023-04-23T04:09:37;15.60;66.40
71563;DHT22;59391;52.504;13.438;2023-04-23T04:12:04;15.60;66.90
71563;DHT22;59391;52.504;13.438;2023-04-23T04:14:30;15.60;67.20
71563;DHT22;59391;52.504;13.438;2023-04-23T04:16:57;15.60;67.10
71563;DHT22;59391;52.504;13.438;2023-04-23T04:19:23;15.60;66.50
71563;DHT22;59391;52.504;13.438;2023-04-23T04:21:49;15.70;66.00
71563;DHT22;59391;52.504;13.438;2023-04-23T04:24:17;15.70;66.00
71563;DHT22;59391;52.504;13.438;2023-04-23T04:26:44;15.70;65.90
71563;DHT22;59391;52.504;13.438;2023-04-23T04:29:10;15.80;65.50
71563;DHT22;59391;52.504;13.438;2023-04-23T04:31:36;15.80;65.70
71563;DHT22;59391;52.504;13.438;2023-04-23T04:34:02;15.80;65.20
71563;DHT22;59391;52.504;13.438;2023-04-23T04:36:28;15.90;64.80
71563;DHT22;59391;52.504;13.438;2023-04-23T04:38:54;15.90;65.00
71563;DHT22;59391;52.504;13.438;2023-04-23T04:41:24;15.90;65.30
71563;DHT22;59391;52.504;13.438;2023-04-23T04:43:50;16.00;64.70
71563;DHT22;59391;52.504;13.438;2023-04-23T04:46:16;16.00;64.70
71563;DHT22;59391;52.504;13.438;2023-04-23T04:48:45;16.00;64.50
71563;DHT22;59391;52.504;13.438;2023-04-23T04:51:11;16.10;64.70
71563;DHT22;59391;52.504;13.438;2023-04-23T04:53:37;16.20;64.70
71563;DHT22;59391;52.504;13.438;2023-04-23T04:56:02;16.20;64.50
71563;DHT22;59391;52.504;13.438;2023-04-23T04:58:28;16.30;64.60
71563;DHT22;59391;52.504;13.438;2023-04-23T05:00:54;16.30;64.40
71563;DHT22;59391;52.504;13.438;2023-04-23T05:03:20;16.40;63.90
71563;DHT22;59391;52.504;13.438;2023-04-23T05:05:46;16.40;65.00
71563;DHT22;59391;52.504;13.438;2023-04-23T05:08:13;16.40;64.70
71563;DHT22;59391;52.504;13.438;2023-04-23T05:10:41;16.40;64.60
71563;DHT22;59391;52.504;13.438;2023-04-23T05:13:07;16.50;64.60
71563;DHT22;59391;52.504;13.438;2023-04-23T05:15:33;16.50;64.70
71563;DHT22;59391;52.504;13.438;2023-04-23T05:17:58;16.50;64.40
71563;DHT22;59391;52.504;13.438;2023-04-23T05:20:25;16.60;64.40
71563;DHT22;59391;52.504;13.438;2023-04-23T05:22:51;16.60;64.10
71563;DHT22;59391;52.504;13.438;2023-04-23T05:25:17;16.60;63.90
71563;DHT22;59391;52.504;13.438;2023-04-23T05:27:42;16.60;64.00
71563;DHT22;59391;52.504;13.438;2023-04-23T05:30:09;16.60;64.70
71563;DHT22;59391;52.504;13.438;2023-04-23T05:32:36;16.60;64.90
71563;DHT22;59391;52.504;13.438;2023-04-23T05:35:03;16.60;64.90
71563;DHT22;59391;52.504;13.438;2023-04-23T05:37:29;16.60;65.00
71563;DHT22;59391;52.504;13.438;2023-04-23T05:39:55;16.60;65.50
71563;DHT22;59391;52.504;13.438;2023-04-23T05:42:22;16.60;65.10
71563;DHT22;59391;52.504;13.438;2023-04-23T05:44:48;16.60;65.20
71563;DHT22;59391;52.504;13.438;2023-04-23T05:47:14;16.60;65.40
71563;DHT22;59391;52.504;13.438;2023-04-23T05:49:39;16.60;65.80
71563;DHT22;59391;52.504;13.438;2023-04-23T05:52:05;16.60;65.60
71563;DHT22;59391;52.504;13.438;2023-04-23T05:54:31;16.60;65.50
71563;DHT22;59391;52.504;13.438;2023-04-23T05:56:57;16.70;66.00
71563;DHT22;59391;52.504;13.438;2023-04-23T05:59:23;16.70;65.20
71563;DHT22;59391;52.504;13.438;2023-04-23T06:01:49;16.60;65.30
71563;DHT22;59391;52.504;13.438;2023-04-23T06:04:15;16.60;65.20
71563;DHT22;59391;52.504;13.438;2023-04-23T06:06:42;16.60;65.70
71563;DHT22;59391;52.504;13.438;2023-04-23T06:09:08;16.70;66.10
71563;DHT22;59391;52.504;13.438;2023-04-23T06:11:33;16.70;65.90
71563;DHT22;59391;52.504;13.438;2023-04-23T06:14:03;16.70;66.00
71563;DHT22;59391;52.504;13.438;2023-04-23T06:16:29;16.70;65.80
71563;DHT22;59391;52.504;13.438;2023-04-23T06:18:55;16.80;65.10
71563;DHT22;59391;52.504;13.438;2023-04-23T06:21:21;16.80;65.50
71563;DHT22;59391;52.504;13.438;2023-04-23T06:23:48;16.80;65.10
71563;DHT22;59391;52.504;13.438;2023-04-23T06:26:14;16.90;64.80
71563;DHT22;59391;52.504;13.438;2023-04-23T06:28:41;16.90;64.60
71563;DHT22;59391;52.504;13.438;2023-04-23T06:31:08;16.90;64.60
71563;DHT22;59391;52.504;13.438;2023-04-23T06:33:34;17.00;64.40
71563;DHT22;59391;52.504;13.438;2023-04-23T06:36:04;17.00;64.50
71563;DHT22;59391;52.504;13.438;2023-04-23T06:38:32;17.00;64.10
71563;DHT22;59391;52.504;13.438;2023-04-23T06:40:57;17.10;64.30
71563;DHT22;59391;52.504;13.438;2023-04-23T06:43:23;17.10;64.00
71563;DHT22;59391;52.504;13.438;2023-04-23T06:45:49;17.20;63.90
71563;DHT22;59391;52.504;13.438;2023-04-23T06:48:15;17.20;64.70
71563;DHT22;59391;52.504;13.438;2023-04-23T06:50:41;17.20;63.90
71563;DHT22;59391;52.504;13.438;2023-04-23T06:53:06;17.20;63.80
71563;DHT22;59391;52.504;13.438;2023-04-23T06:55:32;17.20;63.90
71563;DHT22;59391;52.504;13.438;2023-04-23T06:57:58;17.20;63.20
71563;DHT22;59391;52.504;13.438;2023-04-23T07:00:24;17.20;63.90
71563;DHT22;59391;52.504;13.438;2023-04-23T07:02:49;17.30;64.10
71563;DHT22;59391;52.504;13.438;2023-04-23T07:05:18;17.30;64.10
71563;DHT22;59391;52.504;13.438;2023-04-23T07:07:44;17.40;64.00
71563;DHT22;59391;52.504;13.438;2023-04-23T07:10:10;17.40;64.10
71563;DHT22;59391;52.504;13.438;2023-04-23T07:12:37;17.30;64.30
71563;DHT22;59391;52.504;13.438;2023-04-23T07:15:04;17.20;64.90
71563;DHT22;59391;52.504;13.438;2023-04-23T07:17:31;17.20;65.70
71563;DHT22;59391;52.504;13.438;2023-04-23T07:19:57;17.10;65.40
71563;DHT22;59391;52.504;13.438;2023-04-23T07:22:24;16.90;66.40
71563;DHT22;59391;52.504;13.438;2023-04-23T07:24:50;16.80;67.00
71563;DHT22;59391;52.504;13.438;2023-04-23T07:27:17;16.70;67.80
71563;DHT22;59391;52.504;13.438;2023-04-23T07:29:42;16.60;68.40
71563;DHT22;59391;52.504;13.438;2023-04-23T07:32:08;16.50;69.60
71563;DHT22;59391;52.504;13.438;2023-04-23T07:34:34;16.40;69.90
71563;DHT22;59391;52.504;13.438;2023-04-23T07:37:01;16.30;71.00
71563;DHT22;59391;52.504;13.438;2023-04-23T07:39:27;16.20;71.60
71563;DHT22;59391;52.504;13.438;2023-04-23T07:41:53;16.10;72.40
71563;DHT22;59391;52.504;13.438;2023-04-23T07:44:19;16.00;73.10
71563;DHT22;59391;52.504;13.438;2023-04-23T07:46:44;15.80;73.40
71563;DHT22;59391;52.504;13.438;2023-04-23T07:49:10;15.70;73.90
71563;DHT22;59391;52.504;13.438;2023-04-23T07:51:36;15.70;74.60
71563;DHT22;59391;52.504;13.438;2023-04-23T07:54:01;15.60;75.20
71563;DHT22;59391;52.504;13.438;2023-04-23T07:56:27;15.50;75.70
71563;DHT22;59391;52.504;13.438;2023-04-23T07:58:59;15.50;75.90
71563;DHT22;59391;52.504;13.438;2023-04-23T08:01:25;15.40;76.50
71563;DHT22;59391;52.504;13.438;2023-04-23T08:03:51;15.40;76.80
71563;DHT22;59391;52.504;13.438;2023-04-23T08:06:17;15.40;77.40
71563;DHT22;59391;52.504;13.438;2023-04-23T08:08:43;15.40;77.50
71563;DHT22;59391;52.504;13.438;2023-04-23T08:11:09;15.40;78.00
71563;DHT22;59391;52.504;13.438;2023-04-23T08:13:35;15.30;78.20
71563;DHT22;59391;52.504;13.438;2023-04-23T08:16:01;15.40;78.30
71563;DHT22;59391;52.504;13.438;2023-04-23T08:18:27;15.30;78.30
71563;DHT22;59391;52.504;13.438;2023-04-23T08:20:53;15.30;78.20
71563;DHT22;59391;52.504;13.438;2023-04-23T08:23:20;15.30;78.70
71563;DHT22;59391;52.504;13.438;2023-04-23T08:25:46;15.30;79.00
71563;DHT22;59391;52.504;13.438;2023-04-23T08:28:11;15.30;78.70
71563;DHT22;59391;52.504;13.438;2023-04-23T08:30:37;15.40;79.30
71563;DHT22;59391;52.504;13.438;2023-04-23T08:33:03;15.40;79.40
71563;DHT22;59391;52.504;13.438;2023-04-23T08:35:29;15.40;79.40
71563;DHT22;59391;52.504;13.438;2023-04-23T08:37:55;15.40;78.90
71563;DHT22;59391;52.504;13.438;2023-04-23T08:40:21;15.50;79.40
71563;DHT22;59391;52.504;13.438;2023-04-23T08:42:53;15.60;79.70
71563;DHT22;59391;52.504;13.438;2023-04-23T08:45:23;15.60;79.70
71563;DHT22;59391;52.504;13.438;2023-04-23T08:47:50;15.70;79.40
71563;DHT22;59391;52.504;13.438;2023-04-23T08:50:17;15.70;78.80
71563;DHT22;59391;52.504;13.438;2023-04-23T08:52:51;15.80;78.90
71563;DHT22;59391;52.504;13.438;2023-04-23T08:55:19;15.90;79.20
71563;DHT22;59391;52.504;13.438;2023-04-23T08:57:46;15.90;78.50
71563;DHT22;59391;52.504;13.438;2023-04-23T09:00:13;16.00;78.40
71563;DHT22;59391;52.504;13.438;2023-04-23T09:02:43;16.10;78.10
71563;DHT22;59391;52.504;13.438;2023-04-23T09:05:10;16.20;76.20
71563;DHT22;59391;52.504;13.438;2023-04-23T09:07:37;16.30;75.90
71563;DHT22;59391;52.504;13.438;2023-04-23T09:10:04;16.30;75.20
71563;DHT22;59391;52.504;13.438;2023-04-23T09:12:34;16.30;74.60
71563;DHT22;59391;52.504;13.438;2023-04-23T09:15:00;16.30;74.50
71563;DHT22;59391;52.504;13.438;2023-04-23T09:17:28;16.30;74.30
71563;DHT22;59391;52.504;13.438;2023-04-23T09:19:54;16.30;74.50
71563;DHT22;59391;52.504;13.438;2023-04-23T09:22:49;16.30;74.80
71563;DHT22;59391;52.504;13.438;2023-04-23T09:25:21;16.30;74.70
71563;DHT22;59391;52.504;13.438;2023-04-23T09:27:50;16.30;74.70
71563;DHT22;59391;52.504;13.438;2023-04-23T09:30:17;16.30;74.70
71563;DHT22;59391;52.504;13.438;2023-04-23T09:32:45;16.30;74.70
71563;DHT22;59391;52.504;13.438;2023-04-23T09:35:16;16.30;73.90
71563;DHT22;59391;52.504;13.438;2023-04-23T09:37:47;16.30;74.00
71563;DHT22;59391;52.504;13.438;2023-04-23T09:40:22;16.30;72.60
71563;DHT22;59391;52.504;13.438;2023-04-23T09:42:50;16.30;73.70
71563;DHT22;59391;52.504;13.438;2023-04-23T09:45:18;16.30;73.70
71563;DHT22;59391;52.504;13.438;2023-04-23T09:47:52;16.30;72.20
71563;DHT22;59391;52.504;13.438;2023-04-23T09:50:25;16.20;71.90
71563;DHT22;59391;52.504;13.438;2023-04-23T09:52:56;16.20;70.70
71563;DHT22;59391;52.504;13.438;2023-04-23T09:55:35;16.10;70.60
71563;DHT22;59391;52.504;13.438;2023-04-23T09:58:12;16.00;69.40
71563;DHT22;59391;52.504;13.438;2023-04-23T10:00:40;16.00;69.70
71563;DHT22;59391;52.504;13.438;2023-04-23T10:03:07;15.90;70.30
71563;DHT22;59391;52.504;13.438;2023-04-23T10:05:40;15.90;70.10
71563;DHT22;59391;52.504;13.438;2023-04-23T10:08:07;15.80;70.40
71563;DHT22;59391;52.504;13.438;2023-04-23T10:10:34;15.80;70.70
71563;DHT22;59391;52.504;13.438;2023-04-23T10:13:00;15.80;72.00
71563;DHT22;59391;52.504;13.438;2023-04-23T10:15:27;15.80;71.70
71563;DHT22;59391;52.504;13.438;2023-04-23T10:17:53;15.80;71.30
71563;DHT22;59391;52.504;13.438;2023-04-23T10:20:21;15.80;70.40
71563;DHT22;59391;52.504;13.438;2023-04-23T10:22:48;15.70;71.20
71563;DHT22;59391;52.504;13.438;2023-04-23T10:25:15;15.70;70.60
71563;DHT22;59391;52.504;13.438;2023-04-23T10:27:42;15.70;71.10
71563;DHT22;59391;52.504;13.438;2023-04-23T10:30:11;15.70;71.70
71563;DHT22;59391;52.504;13.438;2023-04-23T10:32:39;15.70;72.10
71563;DHT22;59391;52.504;13.438;2023-04-23T10:35:07;15.80;72.20
71563;DHT22;59391;52.504;13.438;2023-04-23T10:37:35;15.80;72.30
71563;DHT22;59391;52.504;13.438;2023-04-23T10:40:28;15.80;72.50
71563;DHT22;59391;52.504;13.438;2023-04-23T10:42:56;15.80;72.60
71563;DHT22;59391;52.504;13.438;2023-04-23T10:45:23;15.80;70.70
71563;DHT22;59391;52.504;13.438;2023-04-23T10:47:48;15.90;72.60
71563;DHT22;59391;52.504;13.438;2023-04-23T10:50:17;15.90;72.90
71563;DHT22;59391;52.504;13.438;2023-04-23T10:52:54;16.00;71.80
71563;DHT22;59391;52.504;13.438;2023-04-23T10:55:29;16.10;72.40
71563;DHT22;59391;52.504;13.438;2023-04-23T10:57:56;16.20;71.50
71563;DHT22;59391;52.504;13.438;2023-04-23T11:00:26;16.40;71.60
71563;DHT22;59391;52.504;13.438;2023-04-23T11:02:52;16.50;69.20
71563;DHT22;59391;52.504;13.438;2023-04-23T11:05:21;16.70;69.80
71563;DHT22;59391;52.504;13.438;2023-04-23T11:08:07;16.80;70.50
71563;DHT22;59391;52.504;13.438;2023-04-23T11:10:47;17.00;70.60
71563;DHT22;59391;52.504;13.438;2023-04-23T11:13:21;17.10;68.60
71563;DHT22;59391;52.504;13.438;2023-04-23T11:15:48;17.20;68.40
71563;DHT22;59391;52.504;13.438;2023-04-23T11:18:13;17.20;67.20
71563;DHT22;59391;52.504;13.438;2023-04-23T11:20:39;17.20;66.70
71563;DHT22;59391;52.504;13.438;2023-04-23T11:23:05;17.30;65.70
71563;DHT22;59391;52.504;13.438;2023-04-23T11:25:31;17.30;66.70
71563;DHT22;59391;52.504;13.438;2023-04-23T11:27:57;17.40;62.30
71563;DHT22;59391;52.504;13.438;2023-04-23T11:30:25;17.40;63.40
71563;DHT22;59391;52.504;13.438;2023-04-23T11:32:56;17.50;62.80
71563;DHT22;59391;52.504;13.438;2023-04-23T11:35:25;17.60;63.80
71563;DHT22;59391;52.504;13.438;2023-04-23T11:37:56;17.70;63.40
71563;DHT22;59391;52.504;13.438;2023-04-23T11:40:22;17.70;63.70
71563;DHT22;59391;52.504;13.438;2023-04-23T11:42:50;17.70;60.70
71563;DHT22;59391;52.504;13.438;2023-04-23T11:47:51;17.80;62.70
71563;DHT22;59391;52.504;13.438;2023-04-23T11:52:50;18.00;63.90
71563;DHT22;59391;52.504;13.438;2023-04-23T11:55:17;18.10;61.60
71563;DHT22;59391;52.504;13.438;2023-04-23T11:57:45;18.10;62.90
71563;DHT22;59391;52.504;13.438;2023-04-23T12:00:16;18.20;60.70
71563;DHT22;59391;52.504;13.438;2023-04-23T12:03:00;18.30;62.70
71563;DHT22;59391;52.504;13.438;2023-04-23T12:05:32;18.60;62.90
71563;DHT22;59391;52.504;13.438;2023-04-23T12:08:11;19.00;57.80
71563;DHT22;59391;52.504;13.438;2023-04-23T12:10:50;19.30;58.50
71563;DHT22;59391;52.504;13.438;2023-04-23T12:13:25;19.70;57.40
71563;DHT22;59391;52.504;13.438;2023-04-23T12:16:10;20.10;58.50
71563;DHT22;59391;52.504;13.438;2023-04-23T12:18:55;20.40;60.80
71563;DHT22;59391;52.504;13.438;2023-04-23T12:21:30;20.80;58.70
71563;DHT22;59391;52.504;13.438;2023-04-23T12:23:57;21.10;54.40
71563;DHT22;59391;52.504;13.438;2023-04-23T12:26:24;21.20;52.90
71563;DHT22;59391;52.504;13.438;2023-04-23T12:28:52;21.40;50.30
71563;DHT22;59391;52.504;13.438;2023-04-23T12:31:28;21.50;50.30
71563;DHT22;59391;52.504;13.438;2023-04-23T12:34:08;21.50;49.10
71563;DHT22;59391;52.504;13.438;2023-04-23T12:36:35;21.50;45.00
71563;DHT22;59391;52.504;13.438;2023-04-23T12:39:22;21.40;45.40
71563;DHT22;59391;52.504;13.438;2023-04-23T12:41:51;21.40;47.50
71563;DHT22;59391;52.504;13.438;2023-04-23T12:44:20;21.30;48.70
71563;DHT22;59391;52.504;13.438;2023-04-23T12:46:57;21.40;47.90
71563;DHT22;59391;52.504;13.438;2023-04-23T12:49:27;21.40;48.00
71563;DHT22;59391;52.504;13.438;2023-04-23T12:51:58;21.70;47.30
71563;DHT22;59391;52.504;13.438;2023-04-23T12:54:32;21.80;45.40
71563;DHT22;59391;52.504;13.438;2023-04-23T12:57:01;21.90;42.40
71563;DHT22;59391;52.504;13.438;2023-04-23T12:59:30;22.10;43.80
71563;DHT22;59391;52.504;13.438;2023-04-23T13:01:57;22.30;44.80
71563;DHT22;59391;52.504;13.438;2023-04-23T13:04:32;22.50;45.00
71563;DHT22;59391;52.504;13.438;2023-04-23T13:06:59;22.80;41.20
71563;DHT22;59391;52.504;13.438;2023-04-23T13:09:26;23.00;40.30
71563;DHT22;59391;52.504;13.438;2023-04-23T13:11:53;23.10;41.40
71563;DHT22;59391;52.504;13.438;2023-04-23T13:14:19;23.30;39.80
71563;DHT22;59391;52.504;13.438;2023-04-23T13:16:46;23.30;39.20
71563;DHT22;59391;52.504;13.438;2023-04-23T13:19:12;23.40;39.00
71563;DHT22;59391;52.504;13.438;2023-04-23T13:21:38;23.50;40.10
71563;DHT22;59391;52.504;13.438;2023-04-23T13:24:04;23.50;40.00
71563;DHT22;59391;52.504;13.438;2023-04-23T13:26:30;23.60;37.60
71563;DHT22;59391;52.504;13.438;2023-04-23T13:28:57;23.60;38.60
71563;DHT22;59391;52.504;13.438;2023-04-23T13:31:24;23.60;38.40
71563;DHT22;59391;52.504;13.438;2023-04-23T13:33:50;23.60;38.40
71563;DHT22;59391;52.504;13.438;2023-04-23T13:36:16;23.60;38.80
71563;DHT22;59391;52.504;13.438;2023-04-23T13:38:41;23.60;38.60
71563;DHT22;59391;52.504;13.438;2023-04-23T13:41:07;23.60;39.20
71563;DHT22;59391;52.504;13.438;2023-04-23T13:43:32;23.50;39.60
71563;DHT22;59391;52.504;13.438;2023-04-23T13:45:58;23.50;36.30
71563;DHT22;59391;52.504;13.438;2023-04-23T13:48:25;23.40;38.10
71563;DHT22;59391;52.504;13.438;2023-04-23T13:50:53;23.40;38.80
71563;DHT22;59391;52.504;13.438;2023-04-23T13:53:19;23.30;38.30
71563;DHT22;59391;52.504;13.438;2023-04-23T13:55:45;23.00;36.00
71563;DHT22;59391;52.504;13.438;2023-04-23T13:58:11;22.80;37.10
71563;DHT22;59391;52.504;13.438;2023-04-23T14:00:37;22.50;37.80
71563;DHT22;59391;52.504;13.438;2023-04-23T14:03:02;22.20;39.70
71563;DHT22;59391;52.504;13.438;2023-04-23T14:05:29;22.00;40.00
71563;DHT22;59391;52.504;13.438;2023-04-23T14:07:55;22.00;42.80
71563;DHT22;59391;52.504;13.438;2023-04-23T14:10:21;22.00;41.10
71563;DHT22;59391;52.504;13.438;2023-04-23T14:12:48;22.00;40.90
71563;DHT22;59391;52.504;13.438;2023-04-23T14:15:14;22.10;42.90
71563;DHT22;59391;52.504;13.438;2023-04-23T14:17:39;22.20;41.20
71563;DHT22;59391;52.504;13.438;2023-04-23T14:20:08;22.30;41.10
71563;DHT22;59391;52.504;13.438;2023-04-23T14:22:35;22.30;42.50
71563;DHT22;59391;52.504;13.438;2023-04-23T14:25:03;22.30;40.30
71563;DHT22;59391;52.504;13.438;2023-04-23T14:27:39;22.30;40.90
71563;DHT22;59391;52.504;13.438;2023-04-23T14:30:17;22.30;40.40
71563;DHT22;59391;52.504;13.438;2023-04-23T14:32:44;22.30;39.90
71563;DHT22;59391;52.504;13.438;2023-04-23T14:35:14;22.40;40.50
71563;DHT22;59391;52.504;13.438;2023-04-23T14:37:40;22.50;42.50
71563;DHT22;59391;52.504;13.438;2023-04-23T14:40:09;22.70;40.10
71563;DHT22;59391;52.504;13.438;2023-04-23T14:42:38;22.80;39.60
71563;DHT22;59391;52.504;13.438;2023-04-23T14:45:04;22.90;39.70
71563;DHT22;59391;52.504;13.438;2023-04-23T14:47:29;23.00;38.70
71563;DHT22;59391;52.504;13.438;2023-04-23T14:49:55;23.10;39.20
71563;DHT22;59391;52.504;13.438;2023-04-23T14:52:22;23.10;38.00
71563;DHT22;59391;52.504;13.438;2023-04-23T14:54:48;23.10;37.30
71563;DHT22;59391;52.504;13.438;2023-04-23T14:57:14;23.00;37.80
71563;DHT22;59391;52.504;13.438;2023-04-23T14:59:40;23.10;39.10
71563;DHT22;59391;52.504;13.438;2023-04-23T15:02:05;23.10;36.70
71563;DHT22;59391;52.504;13.438;2023-04-23T15:04:31;23.10;37.40
71563;DHT22;59391;52.504;13.438;2023-04-23T15:06:57;23.10;38.30
71563;DHT22;59391;52.504;13.438;2023-04-23T15:09:23;23.10;35.90
71563;DHT22;59391;52.504;13.438;2023-04-23T15:11:49;23.10;36.00
71563;DHT22;59391;52.504;13.438;2023-04-23T15:14:29;23.10;36.20
71563;DHT22;59391;52.504;13.438;2023-04-23T15:16:56;23.10;37.10
71563;DHT22;59391;52.504;13.438;2023-04-23T15:19:22;23.20;42.20
71563;DHT22;59391;52.504;13.438;2023-04-23T15:21:48;23.40;39.30